Terminal Aerodrome Forecast
Issued by NWS

Home | Current Version | Previous Version | Text Only | Print | Product List | Glossary On
Versions: 1 2 3 4 5 6 7 8 9 10 11 12 13 14 15 16
265
FTUS43 KMQT 140402 AAA
TAFSAW
TAF AMD
KSAW 140402Z 1404/1424 36007KT 2SM -SHSN OVC020
     FM140700 36007KT 4SM -SHSN OVC020
     FM141300 31005KT P6SM BKN025
     FM141500 29005KT P6SM BKN035
     FM141600 29006KT P6SM BKN030
     FM142200 27005KT P6SM BKN035=

USA.gov is the U.S. government's official web portal to all federal, state and local government web resources and services.